createdAt,value
2018-06-16T00:00:01.623Z,84.40
2018-06-16T00:00:33.009Z,84.40
2018-06-16T00:01:36.167Z,84.40
2018-06-16T00:02:07.551Z,84.40
2018-06-16T00:02:38.942Z,84.50
2018-06-16T00:03:10.375Z,84.40
2018-06-16T00:03:41.757Z,84.50
2018-06-16T00:04:13.147Z,84.50
2018-06-16T00:04:44.525Z,84.40
2018-06-16T00:05:15.902Z,84.40
2018-06-16T00:05:47.284Z,84.40
2018-06-16T00:06:18.661Z,84.40
2018-06-16T00:06:50.063Z,84.40
2018-06-16T00:07:21.446Z,84.40
2018-06-16T00:07:52.833Z,84.40
2018-06-16T00:08:24.270Z,84.40
2018-06-16T00:08:55.653Z,84.40
2018-06-16T00:09:27.030Z,84.40
2018-06-16T00:09:58.411Z,84.40
2018-06-16T00:10:29.796Z,84.40
2018-06-16T00:11:32.942Z,84.50
2018-06-16T00:12:04.325Z,84.50
2018-06-16T00:12:35.708Z,84.40
2018-06-16T00:13:07.152Z,84.40
2018-06-16T00:13:38.544Z,84.40
2018-06-16T00:14:09.932Z,84.40
2018-06-16T00:14:41.312Z,84.40
2018-06-16T00:15:12.698Z,84.40
2018-06-16T00:15:44.084Z,84.40
2018-06-16T00:16:15.479Z,84.40
2018-06-16T00:16:46.861Z,84.40
2018-06-16T00:17:18.246Z,84.40
2018-06-16T00:17:49.628Z,84.40
2018-06-16T00:18:21.065Z,84.50
2018-06-16T00:18:52.442Z,84.40
2018-06-16T00:19:23.833Z,84.40
2018-06-16T00:19:55.213Z,84.50
2018-06-16T00:20:26.603Z,84.40
2018-06-16T00:20:57.988Z,84.40
2018-06-16T00:21:29.382Z,84.40
2018-06-16T00:22:00.765Z,84.40
2018-06-16T00:22:32.145Z,84.40
2018-06-16T00:23:03.848Z,84.40
2018-06-16T00:23:35.235Z,84.40
2018-06-16T00:24:06.603Z,84.40
2018-06-16T00:24:37.986Z,84.40
2018-06-16T00:25:09.359Z,84.40
2018-06-16T00:25:40.739Z,84.40
2018-06-16T00:26:12.113Z,84.40
2018-06-16T00:26:43.490Z,84.40
2018-06-16T00:27:14.864Z,84.40
2018-06-16T00:27:46.242Z,84.40
2018-06-16T00:28:17.675Z,84.40
2018-06-16T00:28:49.061Z,84.30
2018-06-16T00:29:20.447Z,84.40
2018-06-16T00:29:51.828Z,84.40
2018-06-16T00:30:23.208Z,84.30
2018-06-16T00:30:54.598Z,84.40
2018-06-16T00:31:25.978Z,84.30
2018-06-16T00:31:57.362Z,84.40
2018-06-16T00:32:28.739Z,84.40
2018-06-16T00:33:00.122Z,84.40
2018-06-16T00:33:31.895Z,84.40
2018-06-16T00:34:03.279Z,84.40
2018-06-16T00:34:34.666Z,84.30
2018-06-16T00:35:06.058Z,84.30
2018-06-16T00:35:37.449Z,84.30
2018-06-16T00:36:08.826Z,84.30
2018-06-16T00:36:40.209Z,84.30
2018-06-16T00:37:11.589Z,84.30
2018-06-16T00:37:42.980Z,84.30
2018-06-16T00:38:14.424Z,84.40
2018-06-16T00:38:45.809Z,84.40
2018-06-16T00:39:17.189Z,84.30
2018-06-16T00:39:48.560Z,84.30
2018-06-16T00:40:19.944Z,84.20
2018-06-16T00:40:51.325Z,84.30
2018-06-16T00:41:22.716Z,84.30
2018-06-16T00:41:54.125Z,84.30
2018-06-16T00:42:25.513Z,84.20
2018-06-16T00:43:28.723Z,84.30
2018-06-16T00:44:00.107Z,84.20
2018-06-16T00:44:31.494Z,84.20
2018-06-16T00:45:02.878Z,84.20
2018-06-16T00:45:34.285Z,84.20
2018-06-16T00:46:05.665Z,84.20
2018-06-16T00:46:37.052Z,84.20
2018-06-16T00:47:08.442Z,84.20
2018-06-16T00:47:39.820Z,84.20
2018-06-16T00:48:11.204Z,84.60
2018-06-16T00:48:42.585Z,84.20
2018-06-16T00:49:13.969Z,84.20
2018-06-16T00:49:45.353Z,84.20
2018-06-16T00:50:16.737Z,84.20
2018-06-16T00:50:48.121Z,84.20
2018-06-16T00:51:19.515Z,84.20
2018-06-16T00:51:50.900Z,84.20
2018-06-16T00:52:22.282Z,84.20
2018-06-16T00:52:53.700Z,84.20
2018-06-16T00:53:25.159Z,84.20
2018-06-16T00:53:56.543Z,84.20
2018-06-16T00:54:27.921Z,84.20
2018-06-16T00:54:59.305Z,84.20
2018-06-16T00:55:30.693Z,84.20
2018-06-16T00:56:02.086Z,84.20
2018-06-16T00:56:33.469Z,84.20
2018-06-16T00:57:04.842Z,84.20
2018-06-16T00:57:36.226Z,84.20
2018-06-16T00:58:07.608Z,84.20
2018-06-16T00:58:38.995Z,84.10
2018-06-16T00:59:10.378Z,84.20
2018-06-16T00:59:41.757Z,84.10
2018-06-16T01:00:13.147Z,84.20
2018-06-16T01:01:48.070Z,84.10
2018-06-16T01:02:19.454Z,84.10
2018-06-16T01:02:50.843Z,84.10
2018-06-16T01:03:22.308Z,84.10
2018-06-16T01:03:53.687Z,84.10
2018-06-16T01:04:25.069Z,84.10
2018-06-16T01:04:56.454Z,84.10
2018-06-16T01:05:27.833Z,84.10
2018-06-16T01:05:59.209Z,84.10
2018-06-16T01:06:30.601Z,84.10
2018-06-16T01:07:33.741Z,84.10
2018-06-16T01:08:05.121Z,84.10
2018-06-16T01:08:36.508Z,84.10
2018-06-16T01:09:07.894Z,84.10
2018-06-16T01:09:39.278Z,84.10
2018-06-16T01:10:10.652Z,84.10
2018-06-16T01:10:42.040Z,84.10
2018-06-16T01:11:13.432Z,84.10
2018-06-16T01:11:44.814Z,84.10
2018-06-16T01:12:16.197Z,84.10
2018-06-16T01:12:47.587Z,84.10
2018-06-16T01:13:18.969Z,84.10
2018-06-16T01:13:50.426Z,84.10
2018-06-16T01:14:21.802Z,84.80
2018-06-16T01:14:53.190Z,84.10
2018-06-16T01:15:24.564Z,84.10
2018-06-16T01:15:55.950Z,84.10
2018-06-16T01:16:27.332Z,84.10
2018-06-16T01:16:58.711Z,84.70
2018-06-16T01:17:30.096Z,84.10
2018-06-16T01:18:01.474Z,84.10
2018-06-16T01:18:32.916Z,84.10
2018-06-16T01:19:04.298Z,84.10
2018-06-16T01:19:35.686Z,84.10
2018-06-16T01:20:07.066Z,84.10
2018-06-16T01:20:38.440Z,84.10
2018-06-16T01:21:09.825Z,84.10
2018-06-16T01:21:41.210Z,84.10
2018-06-16T01:22:12.593Z,84.10
2018-06-16T01:22:43.966Z,84.10
2018-06-16T01:23:15.353Z,84.10
2018-06-16T01:23:46.795Z,84.10
2018-06-16T01:24:18.175Z,84.10
2018-06-16T01:24:49.553Z,84.10
2018-06-16T01:25:20.934Z,84.10
2018-06-16T01:25:52.314Z,84.10
2018-06-16T01:26:23.697Z,84.10
2018-06-16T01:26:55.083Z,84.00
2018-06-16T01:27:26.469Z,84.00
2018-06-16T01:27:57.853Z,84.00
2018-06-16T01:28:29.239Z,84.00
2018-06-16T01:29:00.681Z,84.00
2018-06-16T01:29:32.072Z,84.00
2018-06-16T01:30:03.449Z,84.00
2018-06-16T01:30:34.834Z,84.00
2018-06-16T01:31:06.216Z,84.00
2018-06-16T01:31:37.599Z,84.00
2018-06-16T01:32:08.980Z,84.00
2018-06-16T01:32:40.366Z,84.00
2018-06-16T01:33:11.748Z,84.00
2018-06-16T01:33:43.190Z,84.00
2018-06-16T01:34:46.336Z,84.00
2018-06-16T01:35:17.718Z,84.00
2018-06-16T01:35:49.108Z,84.00
2018-06-16T01:36:20.494Z,84.00
2018-06-16T01:36:51.874Z,84.00
2018-06-16T01:37:23.260Z,84.00
2018-06-16T01:37:54.647Z,84.00
2018-06-16T01:38:26.027Z,84.00
2018-06-16T01:38:57.457Z,83.90
2018-06-16T01:39:28.840Z,83.90
2018-06-16T01:40:00.224Z,84.00
2018-06-16T01:40:31.621Z,84.00
2018-06-16T01:41:03.009Z,84.00
2018-06-16T01:41:34.394Z,84.00
2018-06-16T01:42:05.774Z,84.00
2018-06-16T01:42:37.155Z,83.90
2018-06-16T01:43:08.532Z,83.90
2018-06-16T01:43:39.982Z,84.00
2018-06-16T01:44:11.362Z,83.20
2018-06-16T01:44:42.741Z,84.00
2018-06-16T01:45:14.122Z,83.90
2018-06-16T01:45:45.529Z,84.50
2018-06-16T01:46:16.918Z,83.90
2018-06-16T01:46:48.306Z,83.90
2018-06-16T01:47:19.690Z,83.90
2018-06-16T01:47:51.064Z,83.90
2018-06-16T01:48:22.440Z,83.90
2018-06-16T01:48:53.879Z,83.90
2018-06-16T01:49:25.263Z,83.90
2018-06-16T01:49:56.637Z,83.90
2018-06-16T01:50:28.032Z,83.90
2018-06-16T01:50:59.410Z,83.90
2018-06-16T01:51:30.794Z,83.20
2018-06-16T01:52:02.185Z,83.90
2018-06-16T01:52:33.562Z,83.90
2018-06-16T01:53:04.949Z,83.80
2018-06-16T01:53:36.335Z,83.90
2018-06-16T01:54:07.770Z,83.90
2018-06-16T01:54:39.150Z,83.90
2018-06-16T01:55:10.532Z,83.80
2018-06-16T01:55:41.923Z,83.80
2018-06-16T01:56:13.310Z,83.80
2018-06-16T01:56:44.689Z,83.90
2018-06-16T01:57:16.079Z,83.80
2018-06-16T01:57:47.460Z,83.80
2018-06-16T01:58:18.851Z,83.80
2018-06-16T01:58:50.298Z,83.80
2018-06-16T01:59:21.673Z,83.80
2018-06-16T01:59:53.044Z,83.80
2018-06-16T02:00:24.426Z,83.80
2018-06-16T02:00:55.806Z,83.80
2018-06-16T02:01:27.193Z,83.80
2018-06-16T02:01:58.577Z,83.80
2018-06-16T02:02:29.961Z,83.80
2018-06-16T02:03:01.336Z,83.80
2018-06-16T02:03:32.721Z,83.80
2018-06-16T02:04:04.164Z,83.80
2018-06-16T02:04:35.545Z,83.80
2018-06-16T02:05:06.954Z,83.80
2018-06-16T02:05:38.351Z,83.80
2018-06-16T02:06:09.736Z,83.80
2018-06-16T02:06:41.121Z,83.80
2018-06-16T02:07:12.502Z,83.80
2018-06-16T02:07:43.888Z,83.80
2018-06-16T02:08:15.273Z,83.80
2018-06-16T02:08:46.667Z,83.80
2018-06-16T02:09:18.106Z,83.80
2018-06-16T02:09:49.483Z,83.80
2018-06-16T02:10:20.869Z,83.80
2018-06-16T02:10:52.244Z,83.80
2018-06-16T02:11:23.631Z,83.80
2018-06-16T02:11:55.017Z,84.60
2018-06-16T02:12:26.404Z,83.80
2018-06-16T02:12:57.790Z,83.80
2018-06-16T02:13:29.172Z,83.80
2018-06-16T02:14:00.616Z,83.80
2018-06-16T02:14:32.013Z,83.80
2018-06-16T02:15:03.401Z,83.80
2018-06-16T02:15:34.788Z,83.80
2018-06-16T02:16:06.174Z,83.80
2018-06-16T02:16:37.564Z,83.80
2018-06-16T02:17:08.944Z,83.80
2018-06-16T02:17:40.334Z,83.80
2018-06-16T02:18:11.717Z,83.80
2018-06-16T02:18:43.101Z,83.80
2018-06-16T02:19:14.534Z,83.80
2018-06-16T02:19:45.918Z,83.70
2018-06-16T02:20:17.302Z,83.80
2018-06-16T02:20:48.681Z,83.70
2018-06-16T02:21:20.058Z,83.70
2018-06-16T02:21:51.441Z,83.70
2018-06-16T02:22:22.824Z,83.70
2018-06-16T02:22:54.202Z,83.70
2018-06-16T02:23:25.575Z,83.70
2018-06-16T02:23:57.017Z,83.70
2018-06-16T02:24:28.460Z,83.70
2018-06-16T02:24:59.846Z,83.70
2018-06-16T02:25:31.235Z,83.70
2018-06-16T02:26:02.666Z,83.80
2018-06-16T02:26:34.058Z,83.80
2018-06-16T02:27:05.442Z,83.80
2018-06-16T02:27:36.830Z,83.70
2018-06-16T02:28:08.210Z,83.80
2018-06-16T02:28:39.594Z,83.70
2018-06-16T02:29:11.032Z,83.80
2018-06-16T02:29:42.418Z,83.70
2018-06-16T02:30:13.798Z,83.70
2018-06-16T02:30:45.180Z,83.70
2018-06-16T02:31:16.560Z,83.70
2018-06-16T02:31:47.974Z,83.70
2018-06-16T02:32:19.354Z,83.70
2018-06-16T02:32:50.729Z,83.70
2018-06-16T02:33:22.121Z,83.70
2018-06-16T02:33:53.506Z,83.70
2018-06-16T02:34:24.950Z,83.70
2018-06-16T02:34:56.358Z,83.70
2018-06-16T02:35:27.742Z,84.40
2018-06-16T02:36:30.939Z,83.60
2018-06-16T02:37:02.319Z,83.60
2018-06-16T02:37:33.703Z,83.70
2018-06-16T02:38:05.098Z,83.70
2018-06-16T02:38:36.480Z,83.70
2018-06-16T02:39:07.920Z,83.70
2018-06-16T02:39:39.298Z,83.70
2018-06-16T02:40:10.681Z,83.70
2018-06-16T02:40:42.057Z,83.60
2018-06-16T02:41:13.443Z,83.70
2018-06-16T02:41:44.865Z,83.70
2018-06-16T02:42:16.263Z,83.70
2018-06-16T02:42:47.651Z,83.70
2018-06-16T02:43:19.081Z,83.70
2018-06-16T02:43:50.454Z,83.70
2018-06-16T02:44:21.893Z,83.70
2018-06-16T02:44:53.266Z,83.70
2018-06-16T02:45:24.651Z,83.70
2018-06-16T02:45:56.036Z,83.70
2018-06-16T02:46:27.419Z,83.70
2018-06-16T02:46:58.798Z,83.70
2018-06-16T02:47:30.194Z,83.70
2018-06-16T02:48:01.574Z,83.70
2018-06-16T02:48:32.961Z,83.70
2018-06-16T02:49:04.353Z,83.70
2018-06-16T02:49:35.793Z,83.70
2018-06-16T02:50:07.251Z,83.60
2018-06-16T02:50:38.622Z,83.70
2018-06-16T02:51:10.002Z,83.70
2018-06-16T02:51:41.430Z,83.70
2018-06-16T02:52:12.818Z,83.70
2018-06-16T02:52:44.206Z,83.70
2018-06-16T02:53:15.587Z,83.70
2018-06-16T02:53:46.979Z,83.70
2018-06-16T02:54:18.434Z,83.70
2018-06-16T02:54:49.818Z,83.70
2018-06-16T02:55:21.201Z,83.60
2018-06-16T02:55:52.584Z,83.60
2018-06-16T02:56:23.970Z,83.70
2018-06-16T02:56:55.361Z,83.70
2018-06-16T02:57:26.751Z,83.70
2018-06-16T02:57:58.143Z,83.70
2018-06-16T02:58:29.534Z,83.70
2018-06-16T02:59:00.925Z,83.70
2018-06-16T02:59:32.366Z,83.70
2018-06-16T03:00:03.751Z,83.70
2018-06-16T03:00:35.135Z,83.60
2018-06-16T03:01:06.526Z,84.50
2018-06-16T03:01:37.910Z,83.70
2018-06-16T03:02:09.298Z,83.70
2018-06-16T03:02:40.683Z,83.70
2018-06-16T03:03:12.112Z,83.70
2018-06-16T03:03:43.508Z,83.70
2018-06-16T03:04:14.895Z,83.70
2018-06-16T03:04:46.345Z,83.70
2018-06-16T03:05:17.741Z,83.70
2018-06-16T03:05:49.113Z,83.70
2018-06-16T03:06:20.499Z,83.70
2018-06-16T03:06:51.884Z,83.70
2018-06-16T03:07:23.270Z,83.70
2018-06-16T03:07:54.650Z,83.70
2018-06-16T03:08:26.038Z,83.80
2018-06-16T03:08:57.429Z,83.70
2018-06-16T03:09:28.873Z,83.70
2018-06-16T03:10:00.253Z,83.70
2018-06-16T03:10:31.630Z,83.70
2018-06-16T03:11:03.006Z,83.80
2018-06-16T03:11:34.394Z,83.70
2018-06-16T03:12:05.781Z,83.50
2018-06-16T03:12:37.169Z,83.70
2018-06-16T03:13:08.559Z,84.40
2018-06-16T03:13:39.946Z,83.70
2018-06-16T03:14:11.327Z,83.70
2018-06-16T03:15:14.583Z,83.70
2018-06-16T03:15:45.952Z,83.70
2018-06-16T03:16:17.338Z,83.80
2018-06-16T03:16:48.724Z,83.80
2018-06-16T03:17:20.124Z,83.80
2018-06-16T03:17:51.508Z,83.80
2018-06-16T03:18:22.899Z,83.80
2018-06-16T03:18:54.290Z,83.80
2018-06-16T03:19:25.727Z,83.80
2018-06-16T03:19:57.111Z,83.70
2018-06-16T03:20:28.501Z,83.80
2018-06-16T03:20:59.887Z,83.80
2018-06-16T03:21:31.276Z,83.80
2018-06-16T03:22:02.661Z,83.80
2018-06-16T03:22:34.033Z,83.80
2018-06-16T03:23:05.414Z,83.80
2018-06-16T03:23:36.824Z,83.80
2018-06-16T03:24:08.214Z,83.80
2018-06-16T03:24:39.647Z,83.80
2018-06-16T03:25:11.025Z,83.80
2018-06-16T03:25:42.408Z,83.80
2018-06-16T03:26:13.792Z,83.80
2018-06-16T03:26:45.172Z,83.80
2018-06-16T03:27:16.559Z,83.80
2018-06-16T03:27:47.936Z,83.80
2018-06-16T03:28:19.323Z,83.80
2018-06-16T03:28:50.712Z,83.80
2018-06-16T03:29:22.110Z,83.80
2018-06-16T03:29:53.543Z,83.80
2018-06-16T03:30:24.929Z,83.80
2018-06-16T03:30:56.311Z,83.80
2018-06-16T03:31:27.693Z,83.80
2018-06-16T03:31:59.083Z,83.80
2018-06-16T03:32:30.465Z,83.80
2018-06-16T03:33:01.849Z,83.80
2018-06-16T03:33:33.232Z,83.80
2018-06-16T03:34:04.610Z,83.80
2018-06-16T03:34:36.051Z,83.80
2018-06-16T03:35:07.439Z,83.80
2018-06-16T03:35:38.816Z,83.80
2018-06-16T03:36:10.192Z,83.80
2018-06-16T03:36:41.579Z,84.60
2018-06-16T03:37:12.956Z,83.80
2018-06-16T03:37:44.343Z,83.80
2018-06-16T03:38:15.720Z,83.80
2018-06-16T03:38:47.108Z,83.80
2018-06-16T03:39:18.494Z,83.80
2018-06-16T03:39:49.942Z,83.80
2018-06-16T03:40:21.329Z,83.80
2018-06-16T03:40:52.718Z,83.80
2018-06-16T03:41:24.103Z,83.80
2018-06-16T03:41:55.487Z,83.80
2018-06-16T03:42:26.882Z,83.80
2018-06-16T03:42:58.256Z,83.80
2018-06-16T03:43:29.637Z,83.80
2018-06-16T03:44:01.018Z,83.80
2018-06-16T03:44:32.392Z,83.80
2018-06-16T03:45:03.833Z,83.80
2018-06-16T03:45:35.209Z,83.70
2018-06-16T03:46:06.590Z,83.80
2018-06-16T03:46:37.970Z,83.80
2018-06-16T03:47:09.345Z,83.80
2018-06-16T03:47:40.725Z,84.00
2018-06-16T03:48:12.117Z,83.70
2018-06-16T03:48:43.504Z,83.80
2018-06-16T03:49:14.898Z,83.80
2018-06-16T03:49:46.344Z,83.80
2018-06-16T03:50:17.729Z,83.80
2018-06-16T03:50:49.108Z,83.80
2018-06-16T03:51:20.495Z,83.80
2018-06-16T03:51:51.869Z,83.80
2018-06-16T03:52:23.250Z,83.80
2018-06-16T03:52:54.633Z,83.80
2018-06-16T03:53:26.016Z,83.80
2018-06-16T03:53:57.406Z,83.80
2018-06-16T03:54:28.791Z,83.80
2018-06-16T03:55:00.233Z,83.80
2018-06-16T03:55:31.610Z,83.80
2018-06-16T03:56:02.995Z,83.80
2018-06-16T03:56:34.375Z,83.80
2018-06-16T03:57:05.763Z,83.90
2018-06-16T03:57:37.153Z,83.90
2018-06-16T03:58:08.541Z,83.90
2018-06-16T03:58:39.921Z,83.90
2018-06-16T03:59:11.294Z,83.90
2018-06-16T03:59:42.742Z,83.90
2018-06-16T04:00:14.138Z,83.90
2018-06-16T04:00:45.519Z,83.90
2018-06-16T04:01:16.907Z,83.90
2018-06-16T04:01:48.289Z,83.80
2018-06-16T04:02:19.718Z,83.80
2018-06-16T04:02:51.105Z,83.90
2018-06-16T04:03:22.497Z,83.90
2018-06-16T04:03:53.886Z,83.90
2018-06-16T04:04:25.268Z,83.90
2018-06-16T04:04:56.711Z,83.90
2018-06-16T04:05:28.104Z,83.90
2018-06-16T04:05:59.490Z,83.90
2018-06-16T04:06:30.870Z,83.90
2018-06-16T04:07:02.250Z,83.90
2018-06-16T04:07:33.633Z,83.90
2018-06-16T04:08:05.013Z,83.90
2018-06-16T04:08:36.404Z,84.70
2018-06-16T04:09:07.781Z,83.90
2018-06-16T04:09:39.165Z,83.90
2018-06-16T04:10:10.604Z,83.90
2018-06-16T04:10:41.982Z,83.90
2018-06-16T04:11:13.366Z,83.90
2018-06-16T04:11:44.741Z,83.90
2018-06-16T04:12:16.126Z,83.90
2018-06-16T04:12:47.505Z,83.90
2018-06-16T04:13:18.886Z,83.90
2018-06-16T04:13:50.277Z,83.90
2018-06-16T04:14:21.657Z,83.90
2018-06-16T04:14:53.096Z,83.90
2018-06-16T04:15:24.479Z,83.90
2018-06-16T04:15:55.863Z,83.90
2018-06-16T04:16:27.243Z,83.90
2018-06-16T04:16:58.635Z,83.90
2018-06-16T04:17:30.021Z,83.80
2018-06-16T04:18:01.410Z,83.90
2018-06-16T04:18:32.791Z,83.90
2018-06-16T04:19:04.174Z,83.90
2018-06-16T04:19:35.557Z,83.90
2018-06-16T04:20:07.000Z,83.90
2018-06-16T04:20:38.387Z,83.80
2018-06-16T04:21:09.769Z,83.90
2018-06-16T04:21:41.142Z,83.90
2018-06-16T04:22:12.521Z,83.90
2018-06-16T04:22:43.928Z,83.80
2018-06-16T04:23:15.310Z,83.90
2018-06-16T04:23:46.697Z,83.90
2018-06-16T04:24:18.084Z,83.90
2018-06-16T04:25:21.252Z,84.00
2018-06-16T04:25:52.640Z,84.00
2018-06-16T04:26:24.026Z,84.00
2018-06-16T04:26:55.409Z,84.00
2018-06-16T04:27:26.826Z,84.00
2018-06-16T04:27:58.215Z,84.00
2018-06-16T04:28:29.599Z,84.00
2018-06-16T04:29:00.982Z,84.00
2018-06-16T04:29:32.378Z,84.00
2018-06-16T04:30:03.828Z,84.00
2018-06-16T04:30:35.213Z,84.00
2018-06-16T04:31:38.365Z,84.00
2018-06-16T04:32:09.745Z,84.00
2018-06-16T04:32:41.182Z,84.00
2018-06-16T04:33:12.572Z,84.00
2018-06-16T04:33:43.966Z,84.00
2018-06-16T04:34:15.355Z,84.00
2018-06-16T04:34:46.752Z,84.00
2018-06-16T04:35:18.184Z,84.10
2018-06-16T04:35:49.561Z,84.00
2018-06-16T04:36:20.951Z,84.00
2018-06-16T04:36:52.334Z,84.10
2018-06-16T04:37:23.715Z,84.10
2018-06-16T04:37:55.099Z,84.00
2018-06-16T04:38:26.478Z,84.10
2018-06-16T04:38:57.857Z,84.10
2018-06-16T04:39:29.233Z,84.10
2018-06-16T04:40:00.674Z,84.10
2018-06-16T04:40:32.056Z,84.10
2018-06-16T04:41:03.438Z,84.10
2018-06-16T04:41:34.818Z,84.10
2018-06-16T04:42:06.205Z,84.20
2018-06-16T04:42:37.586Z,84.10
2018-06-16T04:43:08.975Z,84.10
2018-06-16T04:43:40.367Z,84.00
2018-06-16T04:44:11.752Z,84.10
2018-06-16T04:44:43.128Z,84.10
2018-06-16T04:45:14.511Z,84.10
2018-06-16T04:45:46.031Z,84.10
2018-06-16T04:46:17.337Z,84.10
2018-06-16T04:46:48.728Z,84.10
2018-06-16T04:47:20.108Z,84.10
2018-06-16T04:47:51.499Z,84.10
2018-06-16T04:48:22.878Z,84.00
2018-06-16T04:48:54.264Z,84.00
2018-06-16T04:49:25.648Z,84.00
2018-06-16T04:49:57.077Z,84.00
2018-06-16T04:50:28.469Z,84.10
2018-06-16T04:50:59.851Z,84.10
2018-06-16T04:51:31.230Z,84.10
2018-06-16T04:52:02.617Z,84.10
2018-06-16T04:52:34.010Z,84.10
2018-06-16T04:53:05.392Z,84.10
2018-06-16T04:53:36.782Z,84.10
2018-06-16T04:54:08.166Z,84.10
2018-06-16T04:54:39.545Z,84.10
2018-06-16T04:55:10.923Z,84.10
2018-06-16T04:55:42.309Z,84.10
2018-06-16T04:56:13.692Z,84.10
2018-06-16T04:56:45.070Z,84.10
2018-06-16T04:57:16.448Z,84.10
2018-06-16T04:57:47.831Z,84.10
2018-06-16T04:58:19.221Z,84.10
2018-06-16T04:58:50.600Z,84.10
2018-06-16T04:59:21.995Z,84.10
2018-06-16T04:59:53.381Z,84.10
2018-06-16T05:00:24.769Z,84.60
2018-06-16T05:00:56.158Z,84.10
2018-06-16T05:01:27.546Z,84.10
2018-06-16T05:01:58.937Z,84.10
2018-06-16T05:02:30.319Z,84.10
2018-06-16T05:03:01.698Z,84.10
2018-06-16T05:03:33.085Z,84.10
2018-06-16T05:04:04.465Z,84.10
2018-06-16T05:04:35.850Z,83.80
2018-06-16T05:05:07.299Z,84.10
2018-06-16T05:05:38.688Z,84.10
2018-06-16T05:06:10.065Z,84.10
2018-06-16T05:06:41.457Z,84.10
2018-06-16T05:07:12.842Z,84.10
2018-06-16T05:07:44.228Z,84.10
2018-06-16T05:08:15.603Z,84.20
2018-06-16T05:08:46.989Z,84.10
2018-06-16T05:09:18.377Z,84.10
2018-06-16T05:09:49.760Z,84.10
2018-06-16T05:10:21.187Z,84.10
2018-06-16T05:10:52.580Z,84.10
2018-06-16T05:11:23.959Z,84.10
2018-06-16T05:11:55.342Z,84.10
2018-06-16T05:12:26.731Z,84.10
2018-06-16T05:12:58.110Z,84.10
2018-06-16T05:13:29.489Z,84.10
2018-06-16T05:14:32.652Z,84.10
2018-06-16T05:15:04.037Z,84.10
2018-06-16T05:15:35.474Z,84.10
2018-06-16T05:16:06.850Z,84.10
2018-06-16T05:16:38.236Z,84.10
2018-06-16T05:17:09.619Z,84.20
2018-06-16T05:17:41.009Z,84.20
2018-06-16T05:18:12.388Z,84.20
2018-06-16T05:18:43.772Z,84.10
2018-06-16T05:19:15.965Z,84.10
2018-06-16T05:19:47.352Z,84.20
2018-06-16T05:20:18.793Z,84.20
2018-06-16T05:20:50.179Z,84.20
2018-06-16T05:21:21.566Z,84.20
2018-06-16T05:21:53.020Z,84.10
2018-06-16T05:22:24.408Z,84.20
2018-06-16T05:22:55.793Z,84.20
2018-06-16T05:23:27.173Z,84.20
2018-06-16T05:23:58.555Z,84.20
2018-06-16T05:24:29.945Z,84.20
2018-06-16T05:25:01.338Z,84.20
2018-06-16T05:25:32.773Z,84.20
2018-06-16T05:26:04.166Z,84.20
2018-06-16T05:26:35.548Z,84.20
2018-06-16T05:27:06.935Z,85.00
2018-06-16T05:27:38.314Z,84.20
2018-06-16T05:28:09.694Z,84.20
2018-06-16T05:28:41.077Z,84.20
2018-06-16T05:29:12.472Z,84.30
2018-06-16T05:29:43.859Z,84.30
2018-06-16T05:30:15.242Z,84.20
2018-06-16T05:30:46.681Z,84.30
2018-06-16T05:31:18.070Z,84.20
2018-06-16T05:31:49.454Z,84.20
2018-06-16T05:32:20.832Z,84.20
2018-06-16T05:32:52.218Z,84.20
2018-06-16T05:33:23.600Z,84.20
2018-06-16T05:33:54.974Z,84.20
2018-06-16T05:34:26.357Z,84.20
2018-06-16T05:34:58.121Z,84.20
2018-06-16T05:35:30.921Z,84.20
2018-06-16T05:36:03.900Z,84.20
2018-06-16T05:36:36.545Z,84.30
2018-06-16T05:37:07.925Z,84.30
2018-06-16T05:37:39.311Z,84.30
2018-06-16T05:38:10.695Z,84.40
2018-06-16T05:38:42.075Z,84.40
2018-06-16T05:39:13.459Z,84.40
2018-06-16T05:39:44.840Z,84.40
2018-06-16T05:40:16.219Z,84.40
2018-06-16T05:40:47.655Z,84.40
2018-06-16T05:41:19.034Z,84.40
2018-06-16T05:41:50.417Z,84.40
2018-06-16T05:42:21.800Z,84.40
2018-06-16T05:42:53.182Z,84.40
2018-06-16T05:43:24.565Z,84.30
2018-06-16T05:43:55.944Z,84.30
2018-06-16T05:44:28.123Z,84.30
2018-06-16T05:45:00.649Z,84.30
2018-06-16T05:45:34.102Z,84.20
2018-06-16T05:46:07.455Z,84.30
2018-06-16T05:46:40.257Z,84.30
2018-06-16T05:47:13.459Z,84.30
2018-06-16T05:47:47.332Z,84.30
2018-06-16T05:48:20.474Z,84.20
2018-06-16T05:48:52.929Z,84.20
2018-06-16T05:49:24.409Z,84.20
2018-06-16T05:49:55.781Z,84.20
2018-06-16T05:50:27.240Z,84.20
2018-06-16T05:50:58.618Z,84.20
2018-06-16T05:51:30.006Z,84.20
2018-06-16T05:52:01.385Z,84.20
2018-06-16T05:52:32.764Z,84.20
2018-06-16T05:53:04.148Z,84.80
2018-06-16T05:53:35.529Z,84.20
2018-06-16T05:54:07.013Z,84.20
2018-06-16T05:54:38.349Z,84.20
2018-06-16T05:55:10.920Z,84.20
2018-06-16T05:55:44.966Z,84.20
2018-06-16T05:56:17.676Z,84.20
2018-06-16T05:57:23.814Z,84.20
2018-06-16T05:57:56.879Z,84.20
2018-06-16T05:58:29.442Z,84.20
2018-06-16T05:59:02.119Z,84.20
2018-06-16T05:59:35.047Z,84.20
2018-06-16T06:00:07.849Z,84.30
2018-06-16T06:01:13.795Z,84.30
2018-06-16T06:01:46.804Z,84.30
2018-06-16T06:02:19.703Z,84.30
2018-06-16T06:02:52.816Z,84.30
2018-06-16T06:03:25.710Z,84.20
2018-06-16T06:03:58.633Z,84.30
2018-06-16T06:04:31.738Z,84.30
2018-06-16T06:05:04.674Z,84.40
2018-06-16T06:05:37.286Z,84.30
2018-06-16T06:06:11.565Z,84.40
2018-06-16T06:06:44.382Z,84.40
2018-06-16T06:07:18.096Z,84.40
2018-06-16T06:07:51.063Z,84.40
2018-06-16T06:08:25.621Z,84.40
2018-06-16T06:08:58.396Z,84.40
2018-06-16T06:09:31.065Z,84.40
2018-06-16T06:10:04.963Z,84.80
2018-06-16T06:10:37.982Z,84.40
2018-06-16T06:11:44.204Z,84.40
2018-06-16T06:12:16.950Z,84.40
2018-06-16T06:12:49.509Z,84.40
2018-06-16T06:13:22.551Z,84.50
2018-06-16T06:13:55.522Z,84.40
2018-06-16T06:14:28.325Z,84.40
2018-06-16T06:15:01.263Z,84.50
2018-06-16T06:15:34.064Z,85.20
2018-06-16T06:16:08.272Z,84.40
2018-06-16T06:16:40.835Z,84.50
2018-06-16T06:17:12.957Z,84.50
2018-06-16T06:18:18.937Z,84.50
2018-06-16T06:18:51.907Z,84.40
2018-06-16T06:19:25.095Z,84.50
2018-06-16T06:19:57.885Z,84.50
2018-06-16T06:20:30.875Z,84.50
2018-06-16T06:21:02.808Z,84.50
2018-06-16T06:21:34.246Z,84.50
2018-06-16T06:22:05.622Z,84.50
2018-06-16T06:22:37.003Z,84.50
2018-06-16T06:23:08.516Z,84.50
2018-06-16T06:23:39.896Z,84.50
2018-06-16T06:24:11.279Z,84.50
2018-06-16T06:24:42.661Z,84.50
2018-06-16T06:25:14.040Z,84.50
2018-06-16T06:25:45.431Z,84.50
2018-06-16T06:26:17.556Z,84.50
2018-06-16T06:26:49.009Z,84.50
2018-06-16T06:27:20.391Z,84.50
2018-06-16T06:27:51.779Z,84.40
2018-06-16T06:28:23.169Z,84.50
2018-06-16T06:28:54.551Z,84.50
2018-06-16T06:29:25.932Z,84.50
2018-06-16T06:29:57.315Z,84.50
2018-06-16T06:30:28.697Z,84.50
2018-06-16T06:31:00.080Z,84.50
2018-06-16T06:31:31.462Z,84.40
2018-06-16T06:32:02.864Z,84.50
2018-06-16T06:32:34.259Z,84.50
2018-06-16T06:33:05.637Z,84.50
2018-06-16T06:33:37.022Z,84.50
2018-06-16T06:34:08.418Z,84.50
2018-06-16T06:34:39.812Z,84.50
2018-06-16T06:35:11.194Z,84.50
2018-06-16T06:35:42.570Z,84.50
2018-06-16T06:36:13.954Z,84.50
2018-06-16T06:36:45.347Z,84.50
2018-06-16T06:37:16.761Z,84.50
2018-06-16T06:37:48.172Z,84.50
2018-06-16T06:38:19.553Z,84.50
2018-06-16T06:38:50.943Z,84.50
2018-06-16T06:39:22.328Z,84.40
2018-06-16T06:39:53.718Z,84.50
2018-06-16T06:40:25.106Z,84.50
2018-06-16T06:40:56.490Z,84.50
2018-06-16T06:41:27.867Z,84.50
2018-06-16T06:41:59.266Z,84.50
2018-06-16T06:42:30.650Z,84.50
2018-06-16T06:43:02.029Z,84.50
2018-06-16T06:43:33.508Z,84.50
2018-06-16T06:44:04.852Z,84.50
2018-06-16T06:44:36.232Z,84.50
2018-06-16T06:45:07.609Z,84.50
2018-06-16T06:45:38.985Z,84.50
2018-06-16T06:46:10.428Z,84.50
2018-06-16T06:46:41.807Z,84.50
2018-06-16T06:47:13.763Z,84.50
2018-06-16T06:47:45.317Z,84.50
2018-06-16T06:48:16.698Z,84.50
2018-06-16T06:48:48.132Z,84.50
2018-06-16T06:49:20.859Z,84.50
2018-06-16T06:49:52.296Z,84.50
2018-06-16T06:50:23.679Z,84.50
2018-06-16T06:50:55.131Z,84.50
2018-06-16T06:51:26.556Z,84.50
2018-06-16T06:51:57.938Z,84.50
2018-06-16T06:52:29.321Z,84.50
2018-06-16T06:53:00.931Z,84.50
2018-06-16T06:53:33.434Z,84.50
2018-06-16T06:54:06.572Z,84.50